Terminal Aerodrome Forecast
Issued by NWS Twin Cities, MN

Home | Current Version | Previous Version | Text Only | Print | Product List | Glossary On
Versions: 1 2 3 4 5 6 7 8 9 10 11 12 13 14 15 16
798
FTUS43 KMPX 141740
TAFSTC
TAF
KSTC 141740Z 1418/1518 15012KT 6SM -SN BKN022 OVC040
      TEMPO 1418/1421 3SM -SN BKN017 OVC022
     FM142100 16011KT 4SM -SN BKN015 OVC035
     FM150100 16009KT P6SM OVC012
     FM150700 21004KT 6SM BR OVC008=

USA.gov is the U.S. government's official web portal to all federal, state and local government web resources and services.